Time;durP1;ratioP1;P1;durP2;ratioP2;P2;SDS_P1;SDS_P2;PMS_P1;PMS_P2;Temp;Humidity;BMP_temperature;BMP_pressure;BME280_temperature;BME280_humidity;BME280_pressure;Samples;Min_cycle;Max_cycle;Signal;HPM_P1;HPM_P2
2022/08/13 00:00:25;;;;;;;3.80;2.10;;;20.60;51.10;;;;;;625555;229;26839;-66
2022/08/13 00:02:52;;;;;;;4.35;2.40;;;20.60;51.30;;;;;;625556;229;26628;-66
2022/08/13 00:05:24;;;;;;;2.03;1.92;;;20.60;51.60;;;;;;625580;229;26582;-66
2022/08/13 00:07:50;;;;;;;4.78;2.70;;;20.50;51.50;;;;;;625275;230;26610;-66
2022/08/13 00:10:28;;;;;;;3.62;2.20;;;20.50;51.40;;;;;;625503;230;26594;-66
2022/08/13 00:12:56;;;;;;;2.28;2.08;;;20.50;51.50;;;;;;625226;230;26573;-66
2022/08/13 00:15:27;;;;;;;2.50;2.30;;;20.50;51.40;;;;;;625496;230;26594;-66
2022/08/13 00:17:54;;;;;;;2.40;2.20;;;20.50;51.40;;;;;;625414;230;26560;-66
2022/08/13 00:20:21;;;;;;;4.12;2.10;;;20.40;51.40;;;;;;626996;228;26590;-66
2022/08/13 00:22:48;;;;;;;4.70;2.20;;;20.40;51.80;;;;;;626758;229;26816;-66
2022/08/13 00:25:15;;;;;;;2.58;2.17;;;20.50;51.70;;;;;;626394;229;26561;-66
2022/08/13 00:27:47;;;;;;;3.53;1.70;;;20.50;51.70;;;;;;626360;229;26796;-66
2022/08/13 00:30:15;;;;;;;2.10;2.00;;;20.40;51.80;;;;;;625830;230;26581;-66
2022/08/13 00:32:39;;;;;;;2.30;2.10;;;20.40;51.80;;;;;;626130;230;26564;-66
2022/08/13 00:35:07;;;;;;;3.22;2.33;;;20.40;52.20;;;;;;626323;230;26849;-66
2022/08/13 00:37:37;;;;;;;3.62;2.47;;;20.40;52.00;;;;;;626036;229;26548;-66
2022/08/13 00:40:03;;;;;;;2.47;2.28;;;20.40;52.00;;;;;;625630;230;26541;-66
2022/08/13 00:42:30;;;;;;;2.30;2.10;;;20.40;52.00;;;;;;625833;230;26559;-66
2022/08/13 00:44:58;;;;;;;2.03;1.92;;;20.30;52.00;;;;;;625839;229;26546;-67
2022/08/13 00:50:00;;;;;;;4.10;2.25;;;20.30;52.30;;;;;;625876;229;26521;-65
2022/08/13 00:52:30;;;;;;;2.15;1.90;;;20.30;52.30;;;;;;625856;230;26550;-66
2022/08/13 00:54:59;;;;;;;2.42;2.28;;;20.20;52.40;;;;;;625578;230;26586;-66
2022/08/13 00:57:23;;;;;;;2.58;1.90;;;20.20;52.40;;;;;;625353;229;26826;-66
2022/08/13 00:59:50;;;;;;;3.35;1.95;;;20.20;52.20;;;;;;625525;229;26587;-66
2022/08/13 01:02:20;;;;;;;2.67;2.12;;;20.10;52.80;;;;;;625536;229;26850;-65
2022/08/13 01:04:46;;;;;;;2.67;2.10;;;20.20;53.00;;;;;;625303;230;26607;-65
2022/08/13 01:07:12;;;;;;;3.20;1.95;;;20.10;52.70;;;;;;625681;230;26772;-66
2022/08/13 01:09:39;;;;;;;2.33;2.12;;;20.00;53.10;;;;;;625421;230;26599;-65
2022/08/13 01:12:09;;;;;;;4.45;2.90;;;20.00;52.80;;;;;;625598;230;26812;-65
2022/08/13 01:14:35;;;;;;;4.03;2.50;;;20.00;53.40;;;;;;625454;230;26572;-65
2022/08/13 01:17:02;;;;;;;5.47;2.87;;;19.90;52.90;;;;;;625657;229;26810;-65
2022/08/13 01:19:30;;;;;;;5.55;2.90;;;19.90;53.20;;;;;;625446;230;26566;-65
2022/08/13 01:21:57;;;;;;;2.60;2.05;;;19.80;53.10;;;;;;625476;230;27108;-65
2022/08/13 01:24:24;;;;;;;2.50;2.30;;;19.90;53.40;;;;;;625494;230;26578;-65
2022/08/13 01:26:53;;;;;;;2.62;2.10;;;19.90;53.80;;;;;;625534;230;26554;-66
2022/08/13 01:29:20;;;;;;;2.08;1.98;;;19.80;53.70;;;;;;625528;229;26561;-66
2022/08/13 01:31:47;;;;;;;2.58;2.37;;;19.90;53.60;;;;;;626876;227;26576;-66
2022/08/13 01:34:15;;;;;;;4.95;2.25;;;19.80;53.50;;;;;;626784;229;26559;-66
2022/08/13 01:36:42;;;;;;;3.22;2.30;;;19.90;53.60;;;;;;626363;229;26551;-66
2022/08/13 01:39:10;;;;;;;2.50;2.30;;;19.80;53.80;;;;;;626285;230;26865;-66
2022/08/13 01:41:38;;;;;;;2.67;2.28;;;19.80;53.90;;;;;;626088;230;26584;-66
2022/08/13 01:44:05;;;;;;;2.22;2.12;;;19.80;53.70;;;;;;626076;230;26960;-66
2022/08/13 01:50:28;;;;;;;4.22;2.00;;;19.80;53.70;;;;;;626193;230;26588;-66
2022/08/13 01:51:32;;;;;;;6.60;2.30;;;19.70;54.10;;;;;;625807;229;26562;-66
2022/08/13 01:54:01;;;;;;;11.23;2.67;;;19.60;54.00;;;;;;625680;229;26561;-65
2022/08/13 01:56:29;;;;;;;8.63;2.55;;;19.60;54.00;;;;;;625837;230;26780;-65
2022/08/13 01:58:57;;;;;;;3.87;2.28;;;19.60;54.30;;;;;;625836;229;26514;-65
2022/08/13 02:01:25;;;;;;;4.72;2.55;;;19.60;54.30;;;;;;625636;230;26791;-65
2022/08/13 02:03:51;;;;;;;2.15;2.00;;;19.70;53.80;;;;;;626036;229;26568;-65
2022/08/13 02:06:21;;;;;;;4.28;2.08;;;19.60;54.40;;;;;;626007;229;26823;-65
2022/08/13 02:08:50;;;;;;;2.10;2.00;;;19.50;54.70;;;;;;625681;229;26590;-65
2022/08/13 02:11:17;;;;;;;3.92;2.33;;;19.60;54.90;;;;;;625445;230;26593;-65
2022/08/13 02:13:44;;;;;;;3.35;2.12;;;19.60;54.90;;;;;;625413;230;26642;-65
2022/08/13 02:16:13;;;;;;;2.40;2.00;;;19.60;55.00;;;;;;625575;230;27278;-66
2022/08/13 02:18:40;;;;;;;2.35;1.98;;;19.60;55.00;;;;;;625581;229;26790;-66
2022/08/13 02:21:07;;;;;;;2.22;2.00;;;19.60;54.60;;;;;;625521;229;26594;-66
2022/08/13 02:23:34;;;;;;;3.95;2.20;;;19.50;54.80;;;;;;625590;230;27322;-66
2022/08/13 02:26:05;;;;;;;3.70;2.30;;;19.40;55.00;;;;;;625512;229;26586;-66
2022/08/13 02:28:32;;;;;;;2.37;2.17;;;19.50;55.40;;;;;;625302;230;26602;-66
2022/08/13 02:30:58;;;;;;;12.57;2.53;;;19.40;55.20;;;;;;625387;230;26597;-66
2022/08/13 02:33:26;;;;;;;3.10;2.20;;;19.50;55.10;;;;;;625519;229;26604;-66
2022/08/13 02:35:54;;;;;;;2.47;2.17;;;19.50;55.20;;;;;;625545;229;26580;-66
2022/08/13 02:38:21;;;;;;;3.60;2.20;;;19.50;55.10;;;;;;625719;230;26578;-65
2022/08/13 02:43:21;;;;;;;2.67;1.98;;;19.40;55.20;;;;;;627161;227;26813;-65
2022/08/13 02:45:49;;;;;;;2.25;2.08;;;19.40;55.40;;;;;;627131;229;26512;-65
2022/08/13 02:48:17;;;;;;;2.25;2.05;;;19.30;55.90;;;;;;626807;229;26492;-65
2022/08/13 02:50:45;;;;;;;2.95;2.28;;;19.30;55.70;;;;;;626592;230;26513;-65
2022/08/13 02:53:14;;;;;;;3.30;2.12;;;19.40;55.70;;;;;;626169;229;26581;-65
2022/08/13 02:55:42;;;;;;;2.58;2.20;;;19.40;55.80;;;;;;626062;230;26586;-65
2022/08/13 02:58:10;;;;;;;3.10;2.72;;;19.40;55.70;;;;;;626057;230;26580;-65
2022/08/13 03:00:39;;;;;;;2.62;2.20;;;19.40;55.50;;;;;;625988;230;26509;-66
2022/08/13 03:03:06;;;;;;;2.47;2.28;;;19.40;55.60;;;;;;625819;229;26518;-66
2022/08/13 03:05:34;;;;;;;2.90;1.85;;;19.40;55.90;;;;;;625879;229;26576;-66
2022/08/13 03:08:03;;;;;;;2.58;2.05;;;19.30;56.00;;;;;;625833;229;26538;-66
2022/08/13 03:10:30;;;;;;;4.70;2.12;;;19.30;56.00;;;;;;626039;229;26518;-66
2022/08/13 03:12:58;;;;;;;5.30;2.45;;;19.30;56.00;;;;;;626094;230;26764;-66
2022/08/13 03:15:25;;;;;;;2.45;2.25;;;19.30;56.20;;;;;;626064;230;26533;-65
2022/08/13 03:17:52;;;;;;;2.87;2.00;;;19.30;56.00;;;;;;626021;229;26749;-65
2022/08/13 03:20:20;;;;;;;2.08;1.92;;;19.30;56.20;;;;;;625587;229;26583;-65
2022/08/13 03:22:52;;;;;;;2.22;2.03;;;19.20;56.10;;;;;;625511;230;26557;-65
2022/08/13 03:25:20;;;;;;;2.28;2.10;;;19.20;56.10;;;;;;625515;229;26802;-65
2022/08/13 03:27:47;;;;;;;2.65;2.45;;;19.20;56.20;;;;;;625489;230;26596;-65
2022/08/13 03:30:16;;;;;;;2.28;2.12;;;19.20;56.70;;;;;;625563;229;26594;-65
2022/08/13 03:32:44;;;;;;;2.50;2.30;;;19.20;56.70;;;;;;625345;230;26598;-65
2022/08/13 03:35:13;;;;;;;6.53;2.70;;;19.20;56.90;;;;;;625396;230;26610;-65
2022/08/13 03:37:40;;;;;;;3.30;2.25;;;19.20;56.90;;;;;;625506;230;26616;-65
2022/08/13 03:40:09;;;;;;;2.65;2.35;;;19.30;56.50;;;;;;625555;229;26829;-65
2022/08/13 03:42:36;;;;;;;4.03;2.08;;;19.30;56.70;;;;;;625571;229;26639;-65
2022/08/13 03:45:03;;;;;;;4.45;2.37;;;19.40;56.60;;;;;;625496;229;26834;-65
2022/08/13 03:47:31;;;;;;;2.17;2.00;;;19.40;56.70;;;;;;625477;230;26609;-65
2022/08/13 03:49:59;;;;;;;2.85;2.30;;;19.40;56.80;;;;;;625519;230;26585;-65
2022/08/13 03:52:27;;;;;;;2.67;2.47;;;19.40;56.80;;;;;;625460;230;26605;-65
2022/08/13 03:54:55;;;;;;;2.62;2.15;;;19.40;56.80;;;;;;626773;228;26612;-65
2022/08/13 03:57:24;;;;;;;2.17;2.08;;;19.40;56.80;;;;;;626803;229;26511;-65
2022/08/13 03:59:51;;;;;;;2.10;2.00;;;19.40;56.90;;;;;;626348;229;26513;-65
2022/08/13 04:02:18;;;;;;;2.83;2.03;;;19.40;56.90;;;;;;626331;229;26755;-65
2022/08/13 04:04:47;;;;;;;2.87;2.20;;;19.40;56.70;;;;;;626139;229;26594;-65
2022/08/13 04:07:14;;;;;;;2.75;2.25;;;19.50;56.80;;;;;;626083;230;26593;-65
2022/08/13 04:09:40;;;;;;;3.80;2.35;;;19.50;56.80;;;;;;626188;230;26787;-65
2022/08/13 04:12:11;;;;;;;2.33;2.15;;;19.60;56.80;;;;;;626044;229;26529;-65
2022/08/13 04:14:36;;;;;;;2.87;2.03;;;19.60;56.80;;;;;;625610;228;26561;-65
2022/08/13 04:17:05;;;;;;;3.47;2.42;;;19.60;57.00;;;;;;625723;230;26553;-65
2022/08/13 04:19:33;;;;;;;2.40;2.12;;;19.50;56.80;;;;;;625790;229;27219;-65
2022/08/13 04:21:59;;;;;;;3.03;2.30;;;19.50;56.80;;;;;;625769;229;26779;-65
2022/08/13 04:24:27;;;;;;;2.65;2.45;;;19.50;56.90;;;;;;625868;230;26553;-65
2022/08/13 04:26:54;;;;;;;4.57;2.37;;;19.50;56.60;;;;;;625876;230;26783;-65
2022/08/13 04:29:21;;;;;;;3.03;2.72;;;19.50;56.90;;;;;;625671;230;26529;-65
2022/08/13 04:31:50;;;;;;;2.60;2.40;;;19.60;57.10;;;;;;625560;229;26809;-65
2022/08/13 04:34:15;;;;;;;2.25;2.12;;;19.60;56.90;;;;;;625380;230;26611;-65
2022/08/13 04:36:42;;;;;;;3.72;2.58;;;19.60;57.10;;;;;;625602;229;26839;-65
2022/08/13 04:39:10;;;;;;;2.97;2.55;;;19.60;57.00;;;;;;625501;229;26587;-65
2022/08/13 04:41:38;;;;;;;3.03;2.72;;;19.60;56.80;;;;;;625532;229;26590;-65
2022/08/13 04:44:06;;;;;;;3.00;2.60;;;19.70;56.90;;;;;;625533;230;26600;-65
2022/08/13 04:46:34;;;;;;;4.65;2.58;;;19.70;56.90;;;;;;625773;230;26621;-65
2022/08/13 04:49:01;;;;;;;3.42;2.40;;;19.70;57.00;;;;;;625837;229;26545;-65
2022/08/13 04:51:31;;;;;;;2.65;2.45;;;19.70;56.70;;;;;;625598;229;26801;-65
2022/08/13 04:53:55;;;;;;;3.33;2.42;;;19.70;57.00;;;;;;625293;230;26580;-65
2022/08/13 04:56:23;;;;;;;2.95;2.30;;;19.70;56.90;;;;;;625494;230;26827;-65
2022/08/13 04:58:50;;;;;;;2.08;1.98;;;19.70;57.10;;;;;;625500;230;26590;-65
2022/08/13 05:01:17;;;;;;;2.17;2.03;;;19.70;56.90;;;;;;625493;230;26842;-65
2022/08/13 05:03:45;;;;;;;2.45;2.25;;;19.70;57.00;;;;;;625447;230;26619;-65
2022/08/13 05:06:12;;;;;;;3.83;2.40;;;19.80;57.50;;;;;;626637;228;26560;-65
2022/08/13 05:08:41;;;;;;;2.50;2.30;;;19.90;58.00;;;;;;626830;229;26544;-65
2022/08/13 05:11:11;;;;;;;3.85;2.65;;;19.90;57.60;;;;;;626487;229;26541;-65
2022/08/13 05:13:35;;;;;;;2.80;2.60;;;20.00;56.90;;;;;;626176;230;26528;-65
2022/08/13 05:16:03;;;;;;;3.37;2.70;;;20.20;56.60;;;;;;626080;229;26845;-65
2022/08/13 05:18:30;;;;;;;2.70;2.50;;;20.30;56.70;;;;;;625771;230;26613;-65
2022/08/13 05:20:59;;;;;;;2.40;2.25;;;20.40;56.70;;;;;;626123;230;26606;-65
2022/08/13 05:23:25;;;;;;;2.87;2.67;;;20.50;56.30;;;;;;626211;230;26785;-65
2022/08/13 05:25:52;;;;;;;3.78;2.42;;;20.60;56.40;;;;;;626077;230;26519;-64
2022/08/13 05:28:20;;;;;;;2.87;2.58;;;20.70;55.90;;;;;;626101;229;26756;-65
2022/08/13 05:30:48;;;;;;;2.33;2.08;;;21.00;56.30;;;;;;626095;230;26522;-65
2022/08/13 05:33:16;;;;;;;2.55;2.35;;;21.10;56.20;;;;;;626123;229;26541;-65
2022/08/13 05:35:44;;;;;;;2.22;2.03;;;21.10;56.20;;;;;;625909;230;26790;-65
2022/08/13 05:38:11;;;;;;;2.28;2.17;;;21.20;56.00;;;;;;625809;229;26545;-65
2022/08/13 05:40:39;;;;;;;2.95;2.70;;;21.30;55.80;;;;;;625759;230;26519;-65
2022/08/13 05:43:10;;;;;;;2.78;2.22;;;21.50;55.70;;;;;;625514;229;26589;-65
2022/08/13 05:45:38;;;;;;;2.58;2.37;;;21.60;55.60;;;;;;625530;229;26599;-65
2022/08/13 05:48:04;;;;;;;3.10;2.83;;;21.90;55.10;;;;;;625424;229;26817;-66
2022/08/13 05:50:33;;;;;;;2.58;2.37;;;22.20;54.60;;;;;;625560;230;26611;-65
2022/08/13 05:53:07;;;;;;;2.60;2.40;;;22.40;53.90;;;;;;625457;230;26597;-65
2022/08/13 05:55:34;;;;;;;2.60;2.40;;;22.90;52.90;;;;;;624754;230;26601;-64
2022/08/13 05:58:03;;;;;;;4.00;2.67;;;23.10;52.50;;;;;;625492;230;26566;-65
2022/08/13 06:05:36;;;;;;;4.37;2.40;;;23.40;52.00;;;;;;625545;229;26639;-65
2022/08/13 06:08:03;;;;;;;2.70;2.50;;;23.50;51.80;;;;;;625535;229;26955;-65
2022/08/13 06:10:31;;;;;;;3.83;2.53;;;23.50;52.30;;;;;;625568;230;26592;-65
2022/08/13 06:12:59;;;;;;;2.42;2.33;;;23.50;52.30;;;;;;625349;230;26596;-65
2022/08/13 06:15:27;;;;;;;2.40;2.20;;;23.40;52.00;;;;;;625376;230;27015;-65
2022/08/13 06:17:53;;;;;;;2.70;2.50;;;23.40;52.00;;;;;;626689;228;26826;-65
2022/08/13 06:20:21;;;;;;;2.97;2.70;;;23.40;51.90;;;;;;626883;229;26536;-65
2022/08/13 06:22:52;;;;;;;3.80;2.65;;;23.50;52.20;;;;;;626567;229;26762;-65
2022/08/13 06:25:17;;;;;;;3.22;2.50;;;23.80;52.30;;;;;;626251;230;26741;-65
2022/08/13 06:27:44;;;;;;;2.50;2.37;;;23.80;52.10;;;;;;626148;230;26778;-65
2022/08/13 06:30:12;;;;;;;2.55;2.35;;;23.90;51.90;;;;;;626134;230;26620;-65
2022/08/13 06:32:39;;;;;;;2.55;2.42;;;24.00;51.30;;;;;;626048;230;26606;-65
2022/08/13 06:35:08;;;;;;;3.55;2.42;;;24.10;50.90;;;;;;626069;230;26808;-65
2022/08/13 06:37:34;;;;;;;2.50;2.30;;;24.20;51.00;;;;;;625731;229;26559;-65
2022/08/13 06:40:01;;;;;;;4.28;3.03;;;24.20;51.30;;;;;;625885;229;26551;-65
2022/08/13 06:42:29;;;;;;;2.87;2.58;;;24.30;51.40;;;;;;625891;230;26556;-65
2022/08/13 06:44:58;;;;;;;3.12;2.40;;;24.50;50.70;;;;;;625860;230;26820;-65
2022/08/13 06:47:25;;;;;;;2.95;2.65;;;24.80;50.90;;;;;;625693;230;26522;-65
2022/08/13 06:49:52;;;;;;;2.80;2.37;;;24.80;50.90;;;;;;625859;229;26812;-65
2022/08/13 06:52:20;;;;;;;3.75;2.70;;;25.00;50.40;;;;;;625735;229;26537;-65
2022/08/13 06:54:48;;;;;;;2.33;2.12;;;25.10;50.30;;;;;;625488;230;26621;-65
2022/08/13 06:57:16;;;;;;;2.58;2.37;;;25.20;49.90;;;;;;625457;229;26608;-65
2022/08/13 06:59:44;;;;;;;3.25;2.45;;;25.40;50.20;;;;;;625493;229;26591;-65
2022/08/13 07:02:11;;;;;;;3.00;2.70;;;25.30;50.10;;;;;;625423;229;26814;-65
2022/08/13 07:04:38;;;;;;;2.53;2.37;;;25.50;50.10;;;;;;625200;230;26621;-65
2022/08/13 07:07:05;;;;;;;2.72;2.53;;;25.60;49.70;;;;;;625556;229;26825;-65
2022/08/13 07:09:33;;;;;;;2.42;2.28;;;25.70;49.70;;;;;;625580;229;26553;-65
2022/08/13 07:12:00;;;;;;;2.60;2.40;;;25.80;49.90;;;;;;625511;229;26809;-66
2022/08/13 07:14:28;;;;;;;2.97;2.65;;;25.80;49.00;;;;;;625533;229;26615;-65
2022/08/13 07:16:58;;;;;;;4.18;2.78;;;25.90;48.80;;;;;;625535;230;26563;-65
2022/08/13 07:19:23;;;;;;;2.78;2.47;;;26.10;49.30;;;;;;625284;230;26584;-65
2022/08/13 07:21:50;;;;;;;3.17;2.87;;;26.10;49.30;;;;;;625480;230;26642;-65
2022/08/13 07:24:18;;;;;;;4.53;2.87;;;26.10;49.40;;;;;;625543;230;26568;-65
2022/08/13 07:26:45;;;;;;;3.45;2.55;;;26.10;49.30;;;;;;625496;230;26836;-65
2022/08/13 07:29:12;;;;;;;3.12;2.50;;;26.10;49.70;;;;;;626580;228;26592;-65
2022/08/13 07:31:41;;;;;;;4.75;2.60;;;26.30;49.20;;;;;;626864;229;26818;-65
2022/08/13 07:34:07;;;;;;;4.40;2.75;;;26.50;48.80;;;;;;626438;229;26556;-65
2022/08/13 07:36:36;;;;;;;3.17;2.83;;;26.70;48.90;;;;;;626495;229;26533;-65
2022/08/13 07:39:07;;;;;;;3.03;2.80;;;26.70;48.70;;;;;;626409;230;26964;-65
2022/08/13 07:41:43;;;;;;;4.00;2.90;;;26.70;48.50;;;;;;626396;229;26551;-67
2022/08/13 07:44:13;;;;;;;4.37;2.80;;;26.70;48.30;;;;;;626392;229;26589;-66
2022/08/13 07:46:42;;;;;;;3.25;2.35;;;26.70;48.30;;;;;;625668;230;26910;-65
2022/08/13 07:49:09;;;;;;;4.10;2.65;;;26.50;48.00;;;;;;625854;224;26522;-66
2022/08/13 07:51:37;;;;;;;2.62;2.40;;;26.50;48.70;;;;;;625757;229;26780;-66
2022/08/13 07:54:05;;;;;;;2.85;2.60;;;26.40;48.80;;;;;;625707;230;26561;-66
2022/08/13 07:56:30;;;;;;;3.67;2.75;;;26.40;48.90;;;;;;625653;230;26780;-66
2022/08/13 07:59:00;;;;;;;3.15;2.90;;;26.50;48.70;;;;;;625802;229;26537;-66
2022/08/13 08:01:27;;;;;;;2.87;2.50;;;26.50;48.90;;;;;;625658;230;26557;-64
2022/08/13 08:03:54;;;;;;;2.87;2.78;;;26.40;49.00;;;;;;625731;230;26542;-67
2022/08/13 08:06:20;;;;;;;3.42;2.58;;;26.40;49.00;;;;;;625480;230;26564;-67
2022/08/13 08:08:47;;;;;;;3.58;2.87;;;26.40;49.00;;;;;;625516;229;26593;-68
2022/08/13 08:12:35;;;;;;;3.00;2.80;;;26.60;49.00;;;;;;625497;229;26821;-67
2022/08/13 08:13:41;;;;;;;4.40;2.47;;;26.70;49.10;;;;;;623589;230;26594;-66
2022/08/13 08:16:08;;;;;;;3.50;2.83;;;26.90;48.90;;;;;;625571;229;26795;-66
2022/08/13 08:18:37;;;;;;;2.78;2.58;;;27.10;48.20;;;;;;625524;230;26580;-66
2022/08/13 08:21:06;;;;;;;2.97;2.65;;;27.20;48.00;;;;;;625487;229;26825;-66
2022/08/13 08:23:34;;;;;;;6.72;3.30;;;27.10;48.20;;;;;;625009;230;26830;-66
2022/08/13 08:26:02;;;;;;;4.55;2.72;;;26.80;48.10;;;;;;626699;226;26580;-68
2022/08/13 08:28:30;;;;;;;7.00;3.28;;;26.80;48.10;;;;;;627520;226;26584;-66
2022/08/13 08:30:57;;;;;;;2.80;2.60;;;26.70;48.20;;;;;;627894;226;26600;-66
2022/08/13 08:33:26;;;;;;;6.25;3.08;;;26.60;48.10;;;;;;628848;226;26931;-67
2022/08/13 08:35:51;;;;;;;4.80;3.00;;;26.60;48.50;;;;;;630663;225;26609;-66
2022/08/13 08:43:34;;;;;;;3.20;3.00;;;27.30;47.60;;;;;;632894;225;27160;-66
2022/08/13 08:46:01;;;;;;;5.50;3.35;;;27.40;47.60;;;;;;629184;226;26563;-67
2022/08/13 08:48:30;;;;;;;5.72;3.17;;;27.50;47.30;;;;;;627697;226;26580;-66
2022/08/13 08:50:56;;;;;;;5.95;3.35;;;27.60;47.30;;;;;;628963;226;26610;-67
2022/08/13 08:53:23;;;;;;;3.33;3.03;;;27.70;47.60;;;;;;629877;226;27179;-67
2022/08/13 08:55:50;;;;;;;5.18;3.30;;;27.70;47.80;;;;;;631580;225;26580;-67
2022/08/13 08:58:19;;;;;;;2.80;2.60;;;27.70;47.80;;;;;;628753;227;26838;-67
2022/08/13 09:00:47;;;;;;;3.55;3.25;;;27.70;47.80;;;;;;627847;227;26599;-67
2022/08/13 09:06:02;;;;;;;3.87;3.58;;;28.10;47.00;;;;;;627354;227;27209;-68
2022/08/13 09:08:32;;;;;;;4.60;3.75;;;28.40;46.70;;;;;;627417;227;26546;-65
2022/08/13 09:10:56;;;;;;;3.33;3.10;;;28.70;46.50;;;;;;628803;226;26769;-65
2022/08/13 09:13:23;;;;;;;3.90;3.60;;;28.90;46.90;;;;;;611531;234;26611;-65
2022/08/13 09:15:51;;;;;;;4.57;4.03;;;29.00;46.60;;;;;;628043;226;26912;-66
2022/08/13 09:18:18;;;;;;;3.62;3.33;;;29.10;45.60;;;;;;627650;225;26574;-66
2022/08/13 09:20:45;;;;;;;5.47;3.60;;;29.10;46.20;;;;;;627653;226;26817;-66
2022/08/13 09:23:13;;;;;;;4.45;3.85;;;29.30;46.50;;;;;;628849;226;26627;-65
2022/08/13 09:25:42;;;;;;;4.12;3.78;;;29.40;46.10;;;;;;629276;225;26770;-66
2022/08/13 09:28:09;;;;;;;4.43;3.83;;;29.30;45.30;;;;;;616934;229;26581;-66
2022/08/13 09:30:35;;;;;;;4.72;4.25;;;29.30;45.30;;;;;;609961;234;26545;-66
2022/08/13 09:33:03;;;;;;;5.40;4.28;;;29.50;45.20;;;;;;615703;233;26613;-66
2022/08/13 09:35:31;;;;;;;4.47;4.18;;;29.80;45.00;;;;;;629239;226;26543;-66
2022/08/13 09:37:58;;;;;;;5.10;4.60;;;29.80;45.00;;;;;;628232;226;26561;-66
2022/08/13 09:40:25;;;;;;;5.07;4.30;;;30.10;45.10;;;;;;612524;234;26637;-66
2022/08/13 09:42:57;;;;;;;5.22;4.45;;;30.00;45.10;;;;;;628526;226;26581;-66
2022/08/13 09:45:20;;;;;;;4.25;3.97;;;30.10;44.60;;;;;;629906;226;26518;-66
2022/08/13 09:47:49;;;;;;;5.70;4.18;;;29.50;45.40;;;;;;632735;225;26597;-66
2022/08/13 09:50:16;;;;;;;5.03;4.62;;;29.50;45.40;;;;;;624982;230;26548;-66
2022/08/13 09:52:44;;;;;;;4.28;3.97;;;29.20;45.40;;;;;;602817;237;26564;-66
2022/08/13 09:55:11;;;;;;;6.87;4.12;;;29.00;46.20;;;;;;629667;225;26543;-66
2022/08/13 09:57:47;;;;;;;4.53;4.12;;;28.90;45.70;;;;;;629339;223;26519;-66
2022/08/13 10:00:20;;;;;;;5.05;4.55;;;29.00;45.70;;;;;;629293;229;26846;-66
2022/08/13 10:02:44;;;;;;;3.80;3.50;;;29.00;45.70;;;;;;607448;237;26587;-66
2022/08/13 10:05:10;;;;;;;4.20;3.75;;;29.20;46.20;;;;;;626187;227;26659;-65
2022/08/13 10:07:39;;;;;;;5.20;4.50;;;29.20;46.10;;;;;;626211;230;26588;-65
2022/08/13 10:10:07;;;;;;;4.78;4.28;;;29.20;45.60;;;;;;625888;230;26582;-66
2022/08/13 10:12:34;;;;;;;4.55;4.15;;;29.20;45.60;;;;;;625934;230;26598;-66
2022/08/13 10:15:02;;;;;;;5.43;4.57;;;29.20;45.20;;;;;;625941;230;26586;-65
2022/08/13 10:17:42;;;;;;;3.80;3.50;;;28.90;45.70;;;;;;625945;230;26554;-65
2022/08/13 10:20:10;;;;;;;4.30;3.90;;;28.90;45.70;;;;;;625963;230;26509;-65
2022/08/13 10:22:37;;;;;;;4.97;4.35;;;28.90;45.90;;;;;;625905;230;26552;-65
2022/08/13 10:25:06;;;;;;;4.55;4.07;;;28.60;46.10;;;;;;625937;230;26567;-66
2022/08/13 10:27:34;;;;;;;4.68;3.90;;;28.60;46.10;;;;;;625968;230;26758;-66
2022/08/13 10:30:01;;;;;;;4.62;4.22;;;28.20;46.80;;;;;;625619;230;26551;-66
2022/08/13 10:32:29;;;;;;;4.90;4.15;;;28.10;47.10;;;;;;625594;230;26599;-66
2022/08/13 10:34:56;;;;;;;4.62;4.22;;;28.00;46.90;;;;;;625641;230;26959;-66
2022/08/13 10:37:23;;;;;;;5.72;4.15;;;28.00;47.20;;;;;;625646;229;26578;-66
2022/08/13 10:39:51;;;;;;;7.47;3.85;;;28.20;47.80;;;;;;625604;230;26842;-66
2022/08/13 10:42:18;;;;;;;4.68;3.90;;;28.40;47.00;;;;;;625627;229;26649;-66
2022/08/13 10:44:45;;;;;;;4.35;3.80;;;28.70;47.10;;;;;;625554;230;26799;-67
2022/08/13 10:47:12;;;;;;;6.03;3.92;;;28.80;46.60;;;;;;626654;225;26553;-65
2022/08/13 10:49:40;;;;;;;4.12;3.67;;;28.60;48.20;;;;;;628363;227;26520;-66
2022/08/13 10:52:08;;;;;;;6.12;3.70;;;28.40;49.50;;;;;;629734;227;26554;-65
2022/08/13 10:54:36;;;;;;;6.03;3.53;;;28.30;49.40;;;;;;626827;227;26608;-65
2022/08/13 10:57:03;;;;;;;3.80;3.50;;;28.30;49.60;;;;;;631197;227;26554;-66
2022/08/13 10:59:33;;;;;;;4.87;4.00;;;27.80;49.30;;;;;;627962;227;26574;-66
2022/08/13 11:01:59;;;;;;;3.62;3.35;;;27.90;49.40;;;;;;628479;227;26560;-65
2022/08/13 11:04:28;;;;;;;3.85;3.40;;;27.80;49.90;;;;;;634799;224;26604;-65
2022/08/13 11:06:54;;;;;;;4.45;3.90;;;27.70;49.90;;;;;;628235;225;26792;-65
2022/08/13 11:09:20;;;;;;;4.93;3.40;;;27.70;49.40;;;;;;630905;225;26582;-65
2022/08/13 11:11:47;;;;;;;3.42;3.22;;;27.70;49.80;;;;;;629505;226;27262;-65
2022/08/13 11:14:16;;;;;;;5.85;3.62;;;27.80;49.80;;;;;;609519;234;26592;-65
2022/08/13 11:16:56;;;;;;;3.58;3.33;;;27.90;49.30;;;;;;611250;234;26807;-65
2022/08/13 11:19:14;;;;;;;3.92;3.35;;;27.90;48.90;;;;;;631570;227;26592;-65
2022/08/13 11:21:38;;;;;;;3.47;3.28;;;28.00;49.60;;;;;;625441;227;26807;-65
2022/08/13 11:24:05;;;;;;;5.65;3.35;;;28.30;49.50;;;;;;629949;227;26643;-66
2022/08/13 11:26:32;;;;;;;2.62;2.47;;;28.50;48.70;;;;;;626593;226;26818;-67
2022/08/13 11:28:59;;;;;;;3.90;2.90;;;28.50;48.40;;;;;;610349;236;26552;-66
2022/08/13 11:31:26;;;;;;;37.30;10.02;;;28.60;48.80;;;;;;631414;227;26775;-67
2022/08/13 11:33:54;;;;;;;90.60;22.02;;;28.60;48.70;;;;;;629888;227;26613;-67
2022/08/13 11:36:21;;;;;;;86.75;18.75;;;28.50;48.30;;;;;;627838;226;26793;-67
2022/08/13 11:38:48;;;;;;;64.43;16.90;;;28.40;48.80;;;;;;625109;224;26763;-67
2022/08/13 11:41:15;;;;;;;56.63;15.68;;;28.30;49.00;;;;;;625974;226;26558;-67
2022/08/13 11:43:42;;;;;;;56.37;14.98;;;28.20;49.00;;;;;;625501;229;26830;-67
2022/08/13 11:46:10;;;;;;;65.07;15.57;;;28.20;49.30;;;;;;633448;226;26502;-68
2022/08/13 11:48:39;;;;;;;49.40;12.90;;;28.00;48.60;;;;;;627327;226;26801;-68
2022/08/13 11:51:04;;;;;;;43.80;12.45;;;27.80;49.60;;;;;;626588;226;26604;-67
2022/08/13 11:53:31;;;;;;;27.90;7.97;;;27.70;50.00;;;;;;625429;226;26586;-66
2022/08/13 11:55:59;;;;;;;31.37;9.68;;;27.60;50.30;;;;;;606305;236;26621;-67
2022/08/13 11:58:27;;;;;;;33.88;8.85;;;27.60;50.90;;;;;;627265;227;26581;-67
2022/08/13 12:00:55;;;;;;;16.95;7.05;;;27.60;51.70;;;;;;632116;227;26531;-67
2022/08/13 12:03:22;;;;;;;15.38;7.03;;;27.60;51.60;;;;;;633918;226;26628;-67
2022/08/13 12:05:50;;;;;;;24.42;8.57;;;27.60;51.80;;;;;;633888;226;26608;-66
2022/08/13 12:08:17;;;;;;;16.58;6.47;;;27.70;51.90;;;;;;633864;226;26586;-66
2022/08/13 12:10:44;;;;;;;17.12;8.02;;;27.90;51.50;;;;;;634134;226;26572;-66
2022/08/13 12:13:11;;;;;;;9.23;5.82;;;28.10;51.30;;;;;;634208;226;26605;-66
2022/08/13 12:15:38;;;;;;;7.05;5.18;;;28.00;50.50;;;;;;635263;224;26567;-67
2022/08/13 12:18:06;;;;;;;7.18;5.07;;;28.10;50.40;;;;;;635581;226;26790;-67
2022/08/13 12:20:33;;;;;;;10.65;4.95;;;28.20;50.20;;;;;;635284;226;26537;-67
2022/08/13 12:23:00;;;;;;;6.57;4.68;;;28.20;50.30;;;;;;635124;223;26783;-67
2022/08/13 12:25:27;;;;;;;9.70;5.68;;;28.30;50.20;;;;;;634805;226;26575;-67
2022/08/13 12:28:06;;;;;;;7.28;5.57;;;28.40;50.60;;;;;;635158;226;26754;-67
2022/08/13 12:30:33;;;;;;;5.50;4.37;;;28.50;50.40;;;;;;635120;226;26565;-67
2022/08/13 12:33:00;;;;;;;6.10;4.80;;;28.70;50.50;;;;;;635001;226;26563;-66
2022/08/13 12:35:28;;;;;;;4.43;3.70;;;28.60;49.40;;;;;;634480;226;26523;-66
2022/08/13 12:37:56;;;;;;;4.70;3.87;;;28.60;50.20;;;;;;634504;226;26754;-66
2022/08/13 12:40:23;;;;;;;4.30;3.90;;;28.50;50.20;;;;;;634512;227;26753;-66
2022/08/13 12:42:50;;;;;;;3.92;3.30;;;28.50;49.90;;;;;;634498;226;26527;-66
2022/08/13 12:45:17;;;;;;;3.97;3.67;;;28.60;50.10;;;;;;634540;226;26883;-66
2022/08/13 12:47:44;;;;;;;5.70;3.72;;;28.60;49.20;;;;;;634517;225;26531;-66
2022/08/13 12:50:12;;;;;;;4.03;3.62;;;28.70;49.50;;;;;;634513;226;26780;-66
2022/08/13 12:52:39;;;;;;;4.22;3.83;;;28.70;49.60;;;;;;634116;226;26566;-66
2022/08/13 12:55:07;;;;;;;5.32;3.45;;;28.70;49.20;;;;;;634204;226;26827;-66
2022/08/13 12:57:34;;;;;;;4.07;3.67;;;28.90;49.10;;;;;;634292;227;26592;-66
2022/08/13 13:00:02;;;;;;;4.03;3.55;;;28.90;48.90;;;;;;634230;227;26868;-66
2022/08/13 13:02:29;;;;;;;5.57;3.50;;;29.00;48.60;;;;;;633976;227;26551;-66
2022/08/13 13:04:56;;;;;;;3.90;3.60;;;29.10;48.40;;;;;;634190;227;26594;-66
2022/08/13 13:07:23;;;;;;;3.83;3.50;;;29.20;48.40;;;;;;634221;226;27017;-66